createdAt,value
2022-10-08T00:01:48.585Z,15.27
2022-10-08T00:04:18.783Z,13.77
2022-10-08T00:06:46.185Z,12.80
2022-10-08T00:09:13.525Z,12.25
2022-10-08T00:11:41.295Z,14.48
2022-10-08T00:14:09.409Z,13.90
2022-10-08T00:16:40.174Z,13.68
2022-10-08T00:19:11.926Z,12.77
2022-10-08T00:21:41.941Z,12.80
2022-10-08T00:24:16.068Z,13.52
2022-10-08T00:26:44.715Z,13.00
2022-10-08T00:29:14.836Z,12.50
2022-10-08T00:31:45.649Z,12.05
2022-10-08T00:34:16.946Z,11.98
2022-10-08T00:36:44.605Z,12.52
2022-10-08T00:39:15.261Z,11.63
2022-10-08T00:41:45.364Z,11.02
2022-10-08T00:44:47.111Z,11.75
2022-10-08T00:47:20.305Z,12.02
2022-10-08T00:49:53.266Z,10.82
2022-10-08T00:52:25.341Z,11.30
2022-10-08T00:54:52.925Z,11.52
2022-10-08T00:57:22.328Z,12.32
2022-10-08T00:59:49.892Z,12.40
2022-10-08T01:02:17.471Z,12.57
2022-10-08T01:04:47.314Z,13.60
2022-10-08T01:07:39.324Z,13.00
2022-10-08T01:10:15.908Z,12.63
2022-10-08T01:12:51.861Z,11.82
2022-10-08T01:15:42.204Z,11.68
2022-10-08T01:18:21.801Z,11.20
2022-10-08T01:21:03.881Z,10.13
2022-10-08T01:24:05.180Z,10.55
2022-10-08T01:26:35.373Z,8.27
2022-10-08T01:29:11.900Z,8.23
2022-10-08T01:31:52.998Z,7.65
2022-10-08T01:34:46.020Z,6.63
2022-10-08T01:37:28.018Z,7.60
2022-10-08T01:40:02.803Z,7.82
2022-10-08T01:42:42.355Z,7.00
2022-10-08T01:45:20.804Z,7.03
2022-10-08T01:47:54.208Z,7.63
2022-10-08T01:50:39.483Z,6.78
2022-10-08T01:53:14.065Z,6.50
2022-10-08T01:55:48.069Z,6.95
2022-10-08T01:58:34.183Z,6.35
2022-10-08T02:01:16.145Z,7.40
2022-10-08T02:04:03.463Z,7.45
2022-10-08T02:06:37.300Z,6.90
2022-10-08T02:09:05.367Z,7.97
2022-10-08T02:11:35.895Z,6.90
2022-10-08T02:14:05.711Z,6.05
2022-10-08T02:16:34.598Z,6.80
2022-10-08T02:19:13.995Z,7.07
2022-10-08T02:21:44.835Z,7.72
2022-10-08T02:24:19.893Z,8.02
2022-10-08T02:26:56.229Z,8.52
2022-10-08T02:29:38.081Z,6.10
2022-10-08T02:32:17.747Z,7.03
2022-10-08T02:34:56.577Z,7.35
2022-10-08T02:37:41.678Z,7.22
2022-10-08T02:40:12.823Z,6.97
2022-10-08T02:42:46.781Z,6.53
2022-10-08T02:45:20.415Z,7.30
2022-10-08T02:47:53.799Z,7.17
2022-10-08T02:50:25.245Z,6.53
2022-10-08T02:52:53.163Z,6.57
2022-10-08T02:55:49.441Z,6.75
2022-10-08T02:58:18.167Z,7.07
2022-10-08T03:01:15.587Z,7.05
2022-10-08T03:03:55.241Z,6.30
2022-10-08T03:06:22.668Z,6.40
2022-10-08T03:08:52.732Z,7.78
2022-10-08T03:11:20.541Z,6.30
2022-10-08T03:13:50.896Z,7.00
2022-10-08T03:16:23.296Z,6.22
2022-10-08T03:18:52.321Z,6.30
2022-10-08T03:21:20.819Z,6.28
2022-10-08T03:23:48.328Z,6.05
2022-10-08T03:26:18.776Z,6.05
2022-10-08T03:28:46.527Z,5.47
2022-10-08T03:31:14.209Z,6.35
2022-10-08T03:33:41.585Z,6.30
2022-10-08T03:36:09.167Z,5.82
2022-10-08T03:38:36.994Z,5.95
2022-10-08T03:41:04.672Z,6.20
2022-10-08T03:43:33.978Z,6.05
2022-10-08T03:46:02.243Z,5.90
2022-10-08T03:48:29.745Z,5.18
2022-10-08T03:51:05.977Z,6.25
2022-10-08T03:53:35.372Z,5.85
2022-10-08T03:56:15.163Z,6.28
2022-10-08T03:58:43.416Z,6.40
2022-10-08T04:01:18.036Z,6.18
2022-10-08T04:03:45.891Z,6.10
2022-10-08T04:06:14.267Z,6.25
2022-10-08T04:08:41.990Z,6.25
2022-10-08T04:11:13.158Z,6.80
2022-10-08T04:13:40.791Z,5.78
2022-10-08T04:16:12.308Z,6.63
2022-10-08T04:18:39.874Z,5.65
2022-10-08T04:21:10.303Z,5.95
2022-10-08T04:23:39.885Z,6.50
2022-10-08T04:26:08.713Z,6.22
2022-10-08T04:28:38.839Z,5.88
2022-10-08T04:31:10.304Z,6.18
2022-10-08T04:33:38.322Z,6.00
2022-10-08T04:36:23.412Z,5.72
2022-10-08T04:38:51.419Z,6.57
2022-10-08T04:41:21.881Z,5.75
2022-10-08T04:43:49.893Z,5.47
2022-10-08T04:46:19.592Z,6.25
2022-10-08T04:48:52.805Z,5.90
2022-10-08T04:51:23.386Z,5.97
2022-10-08T04:53:51.595Z,6.57
2022-10-08T04:56:22.038Z,5.90
2022-10-08T04:58:49.751Z,6.60
2022-10-08T05:01:19.752Z,5.80
2022-10-08T05:03:50.014Z,6.80
2022-10-08T05:06:19.609Z,5.97
2022-10-08T05:08:47.845Z,6.20
2022-10-08T05:11:16.584Z,6.32
2022-10-08T05:13:48.943Z,6.20
2022-10-08T05:16:18.381Z,6.72
2022-10-08T05:18:47.024Z,6.68
2022-10-08T05:21:17.561Z,5.80
2022-10-08T05:23:45.153Z,5.80
2022-10-08T05:26:18.627Z,5.50
2022-10-08T05:28:49.868Z,5.85
2022-10-08T05:31:17.989Z,6.07
2022-10-08T05:33:45.601Z,5.18
2022-10-08T05:36:18.765Z,5.05
2022-10-08T05:38:46.654Z,4.78
2022-10-08T05:41:18.377Z,4.75
2022-10-08T05:43:46.695Z,5.57
2022-10-08T05:46:15.641Z,5.95
2022-10-08T05:48:43.800Z,6.57
2022-10-08T05:51:13.737Z,5.40
2022-10-08T05:53:43.912Z,5.90
2022-10-08T05:56:13.057Z,5.60
2022-10-08T05:58:41.692Z,7.18
2022-10-08T06:01:17.263Z,8.30
2022-10-08T06:03:49.888Z,9.77
2022-10-08T06:06:18.790Z,20.45
2022-10-08T06:08:46.766Z,13.90
2022-10-08T06:11:14.337Z,10.18
2022-10-08T06:13:42.164Z,16.67
2022-10-08T06:16:13.420Z,10.60
2022-10-08T06:18:42.470Z,14.35
2022-10-08T06:21:30.873Z,13.75
2022-10-08T06:24:01.119Z,14.52
2022-10-08T06:26:35.655Z,15.70
2022-10-08T06:29:11.239Z,10.52
2022-10-08T06:31:38.663Z,8.63
2022-10-08T06:34:06.503Z,14.52
2022-10-08T06:36:34.899Z,14.45
2022-10-08T06:39:09.981Z,9.77
2022-10-08T06:41:38.216Z,8.23
2022-10-08T06:44:08.633Z,11.30
2022-10-08T06:46:36.201Z,9.18
2022-10-08T06:49:06.367Z,7.85
2022-10-08T06:51:34.353Z,11.48
2022-10-08T06:54:07.481Z,10.82
2022-10-08T06:56:37.928Z,10.13
2022-10-08T06:59:06.368Z,12.85
2022-10-08T07:01:35.302Z,11.38
2022-10-08T07:04:04.495Z,11.38
2022-10-08T07:06:31.924Z,13.43
2022-10-08T07:09:01.219Z,10.15
2022-10-08T07:11:30.470Z,10.00
2022-10-08T07:13:58.225Z,8.70
2022-10-08T07:16:27.658Z,8.38
2022-10-08T07:18:58.649Z,7.20
2022-10-08T07:21:28.026Z,7.45
2022-10-08T07:23:55.985Z,7.38
2022-10-08T07:26:28.682Z,7.88
2022-10-08T07:29:01.748Z,7.00
2022-10-08T07:31:31.866Z,7.68
2022-10-08T07:34:01.104Z,8.80
2022-10-08T07:36:29.703Z,11.95
2022-10-08T07:38:59.316Z,9.48
2022-10-08T07:41:27.906Z,8.45
2022-10-08T07:44:00.623Z,7.65
2022-10-08T07:46:29.957Z,11.02
2022-10-08T07:49:02.983Z,10.60
2022-10-08T07:51:32.573Z,14.93
2022-10-08T07:54:11.423Z,11.55
2022-10-08T07:56:45.797Z,9.77
2022-10-08T07:59:18.320Z,8.80
2022-10-08T08:01:47.046Z,9.00
2022-10-08T08:04:34.328Z,9.70
2022-10-08T08:07:02.099Z,7.80
2022-10-08T08:09:30.185Z,5.95
2022-10-08T08:11:57.477Z,6.93
2022-10-08T08:14:25.026Z,4.93
2022-10-08T08:16:52.560Z,6.60
2022-10-08T08:19:19.938Z,5.50
2022-10-08T08:21:47.606Z,8.23
2022-10-08T08:24:16.631Z,4.60
2022-10-08T08:26:44.277Z,5.80
2022-10-08T08:29:16.752Z,5.78
2022-10-08T08:31:49.604Z,5.90
2022-10-08T08:34:23.184Z,4.85
2022-10-08T08:36:55.288Z,4.97
2022-10-08T08:39:26.781Z,5.38
2022-10-08T08:42:09.163Z,5.05
2022-10-08T08:44:40.878Z,5.05
2022-10-08T08:47:30.338Z,7.93
2022-10-08T08:50:03.136Z,7.53
2022-10-08T08:52:38.364Z,6.35
2022-10-08T08:55:17.212Z,5.90
2022-10-08T08:57:58.374Z,7.57
2022-10-08T09:00:35.941Z,7.68
2022-10-08T09:03:29.994Z,6.53
2022-10-08T09:06:00.599Z,7.18
2022-10-08T09:09:24.470Z,6.90
2022-10-08T09:11:52.981Z,5.72
2022-10-08T09:14:38.746Z,7.30
2022-10-08T09:17:21.661Z,7.38
2022-10-08T09:19:49.761Z,8.10
2022-10-08T09:22:24.744Z,10.43
2022-10-08T09:25:20.850Z,5.93
2022-10-08T09:28:06.839Z,5.20
2022-10-08T09:31:08.032Z,5.05
2022-10-08T09:33:40.013Z,6.93
2022-10-08T09:36:07.596Z,6.80
2022-10-08T09:38:39.267Z,5.70
2022-10-08T09:41:17.047Z,5.75
2022-10-08T09:43:45.744Z,5.57
2022-10-08T09:46:32.006Z,6.25
2022-10-08T09:49:31.274Z,5.55
2022-10-08T09:52:05.402Z,4.90
2022-10-08T09:54:41.654Z,4.75
2022-10-08T09:57:09.496Z,4.93
2022-10-08T10:00:07.675Z,6.68
2022-10-08T10:02:38.272Z,4.93
2022-10-08T10:05:22.817Z,5.75
2022-10-08T10:07:51.677Z,6.88
2022-10-08T10:10:38.740Z,6.53
2022-10-08T10:13:16.708Z,4.88
2022-10-08T10:15:50.826Z,4.72
2022-10-08T10:18:31.500Z,4.82
2022-10-08T10:21:03.386Z,6.43
2022-10-08T10:26:22.706Z,4.97
2022-10-08T10:28:56.040Z,5.00
2022-10-08T10:31:34.093Z,5.43
2022-10-08T10:34:09.778Z,5.35
2022-10-08T10:36:43.254Z,4.68
2022-10-08T10:39:11.232Z,5.65
2022-10-08T10:42:04.660Z,6.15
2022-10-08T10:44:52.755Z,5.63
2022-10-08T10:47:31.677Z,5.88
2022-10-08T10:50:01.850Z,6.10
2022-10-08T10:52:38.379Z,5.75
2022-10-08T10:55:31.696Z,6.05
2022-10-08T10:58:26.528Z,8.43
2022-10-08T11:00:56.452Z,5.82
2022-10-08T11:03:42.466Z,4.93
2022-10-08T11:06:25.288Z,4.05
2022-10-08T11:08:59.313Z,4.25
2022-10-08T11:14:44.687Z,6.88
2022-10-08T11:17:33.438Z,7.15
2022-10-08T11:20:19.277Z,4.75
2022-10-08T11:23:00.174Z,6.38
2022-10-08T11:26:02.719Z,9.82
2022-10-08T11:28:49.219Z,5.03
2022-10-08T11:31:42.818Z,4.53
2022-10-08T11:34:34.111Z,6.10
2022-10-08T11:37:17.947Z,5.57
2022-10-08T11:40:20.637Z,5.65
2022-10-08T11:43:04.278Z,5.90
2022-10-08T11:50:08.550Z,7.25
2022-10-08T11:56:21.228Z,5.78
2022-10-08T11:58:54.773Z,6.65
2022-10-08T12:01:23.375Z,5.47
2022-10-08T12:04:28.980Z,5.45
2022-10-08T12:07:38.529Z,5.03
2022-10-08T12:10:06.068Z,6.47
2022-10-08T12:12:51.849Z,7.95
2022-10-08T12:15:25.517Z,7.10
2022-10-08T12:17:55.289Z,7.43
2022-10-08T12:20:29.233Z,6.40
2022-10-08T12:23:08.927Z,5.15
2022-10-08T12:25:38.088Z,5.97
2022-10-08T12:28:20.583Z,7.82
2022-10-08T12:31:01.933Z,5.88
2022-10-08T12:33:30.959Z,5.80
2022-10-08T12:36:10.870Z,6.13
2022-10-08T12:39:01.823Z,5.22
2022-10-08T12:41:46.189Z,6.10
2022-10-08T12:44:58.675Z,5.55
2022-10-08T12:47:32.038Z,4.65
2022-10-08T12:50:05.258Z,7.20
2022-10-08T12:52:35.373Z,5.30
2022-10-08T12:55:06.492Z,5.75
2022-10-08T12:57:38.266Z,6.53
2022-10-08T13:00:18.717Z,7.50
2022-10-08T13:03:05.622Z,6.30
2022-10-08T13:05:35.982Z,7.15
2022-10-08T13:08:19.033Z,7.63
2022-10-08T13:10:46.737Z,7.35
2022-10-08T13:13:39.289Z,9.35
2022-10-08T13:16:19.420Z,5.75
2022-10-08T13:18:48.886Z,7.03
2022-10-08T13:21:31.277Z,7.50
2022-10-08T13:24:00.873Z,6.38
2022-10-08T13:26:49.880Z,5.60
2022-10-08T13:29:36.818Z,5.47
2022-10-08T13:32:19.982Z,6.85
2022-10-08T13:34:53.929Z,5.50
2022-10-08T13:37:42.451Z,4.90
2022-10-08T13:40:15.533Z,6.88
2022-10-08T13:42:49.563Z,6.40
2022-10-08T13:45:25.135Z,6.07
2022-10-08T13:47:54.988Z,6.47
2022-10-08T13:50:23.581Z,5.57
2022-10-08T13:52:56.068Z,6.00
2022-10-08T13:55:36.230Z,5.88
2022-10-08T13:58:06.450Z,5.80
2022-10-08T14:00:40.147Z,5.10
2022-10-08T14:03:10.612Z,4.80
2022-10-08T14:05:44.487Z,5.32
2022-10-08T14:08:19.183Z,4.70
2022-10-08T14:10:47.244Z,6.20
2022-10-08T14:13:17.457Z,4.63
2022-10-08T14:15:44.926Z,4.30
2022-10-08T14:18:12.437Z,6.75
2022-10-08T14:20:39.878Z,5.20
2022-10-08T14:23:07.480Z,6.03
2022-10-08T14:25:35.158Z,5.43
2022-10-08T14:28:02.666Z,4.70
2022-10-08T14:30:30.824Z,6.43
2022-10-08T14:32:58.424Z,5.35
2022-10-08T14:35:25.862Z,5.30
2022-10-08T14:37:53.198Z,5.30
2022-10-08T14:40:22.473Z,5.32
2022-10-08T14:42:51.570Z,5.90
2022-10-08T14:45:19.274Z,5.88
2022-10-08T14:47:46.896Z,6.50
2022-10-08T14:50:14.588Z,6.53
2022-10-08T14:52:44.569Z,7.50
2022-10-08T14:55:15.368Z,6.95
2022-10-08T14:57:44.522Z,6.25
2022-10-08T15:00:14.536Z,5.88
2022-10-08T15:02:42.545Z,6.95
2022-10-08T15:05:09.971Z,7.00
2022-10-08T15:07:37.355Z,7.30
2022-10-08T15:10:05.945Z,7.75
2022-10-08T15:12:33.445Z,6.72
2022-10-08T15:15:00.828Z,7.38
2022-10-08T15:17:28.486Z,6.88
2022-10-08T15:19:57.999Z,12.20
2022-10-08T15:22:25.412Z,7.70
2022-10-08T15:24:53.358Z,8.82
2022-10-08T15:27:21.187Z,8.45
2022-10-08T15:29:55.033Z,9.13
2022-10-08T15:32:30.358Z,10.35
2022-10-08T15:34:58.255Z,46.90
2022-10-08T15:37:25.909Z,55.78
2022-10-08T15:39:53.195Z,59.03
2022-10-08T15:42:22.047Z,49.22
2022-10-08T15:44:50.347Z,44.05
2022-10-08T15:47:18.954Z,30.95
2022-10-08T15:49:46.389Z,28.45
2022-10-08T15:52:19.947Z,38.28
2022-10-08T15:54:48.361Z,35.13
2022-10-08T15:57:18.229Z,39.55
2022-10-08T15:59:45.544Z,33.60
2022-10-08T16:02:16.905Z,36.90
2022-10-08T16:04:48.696Z,33.88
2022-10-08T16:07:38.674Z,42.38
2022-10-08T16:10:15.047Z,35.83
2022-10-08T16:13:33.794Z,24.60
2022-10-08T16:16:02.340Z,26.42
2022-10-08T16:18:29.653Z,25.30
2022-10-08T16:21:00.748Z,34.03
2022-10-08T16:23:29.626Z,31.35
2022-10-08T16:25:59.927Z,43.17
2022-10-08T16:28:31.262Z,38.53
2022-10-08T16:30:59.269Z,33.83
2022-10-08T16:33:27.465Z,49.33
2022-10-08T16:35:55.285Z,51.83
2022-10-08T16:38:23.278Z,42.95
2022-10-08T16:40:51.413Z,42.88
2022-10-08T16:43:18.991Z,32.35
2022-10-08T16:45:46.663Z,15.52
2022-10-08T16:48:14.050Z,19.90
2022-10-08T16:50:42.770Z,37.05
2022-10-08T16:53:10.515Z,44.35
2022-10-08T16:55:39.352Z,42.95
2022-10-08T16:58:06.772Z,50.88
2022-10-08T17:00:35.891Z,33.55
2022-10-08T17:03:04.464Z,45.80
2022-10-08T17:05:31.837Z,23.60
2022-10-08T17:07:59.742Z,34.13
2022-10-08T17:10:29.302Z,40.78
2022-10-08T17:12:56.753Z,34.13
2022-10-08T17:15:24.442Z,32.17
2022-10-08T17:17:55.529Z,21.80
2022-10-08T17:20:23.190Z,20.27
2022-10-08T17:22:51.958Z,33.22
2022-10-08T17:25:19.382Z,33.92
2022-10-08T17:27:46.685Z,41.03
2022-10-08T17:30:14.449Z,34.17
2022-10-08T17:32:42.675Z,34.58
2022-10-08T17:35:11.308Z,28.42
2022-10-08T17:37:39.429Z,28.60
2022-10-08T17:40:12.277Z,23.92
2022-10-08T17:42:40.259Z,18.25
2022-10-08T17:45:08.128Z,21.67
2022-10-08T17:47:35.764Z,16.30
2022-10-08T17:50:03.547Z,14.40
2022-10-08T17:52:30.864Z,14.95
2022-10-08T17:54:58.279Z,14.57
2022-10-08T17:57:25.884Z,12.65
2022-10-08T17:59:53.174Z,18.65
2022-10-08T18:02:21.048Z,16.90
2022-10-08T18:04:51.109Z,16.80
2022-10-08T18:07:18.571Z,20.73
2022-10-08T18:09:45.872Z,19.15
2022-10-08T18:12:14.165Z,17.20
2022-10-08T18:14:41.582Z,18.80
2022-10-08T18:17:08.921Z,19.25
2022-10-08T18:19:38.126Z,19.98
2022-10-08T18:22:07.542Z,18.13
2022-10-08T18:24:39.422Z,17.42
2022-10-08T18:27:07.322Z,18.08
2022-10-08T18:29:34.810Z,20.55
2022-10-08T18:32:02.218Z,19.45
2022-10-08T18:34:31.693Z,18.20
2022-10-08T18:36:59.229Z,17.00
2022-10-08T18:39:28.612Z,15.77
2022-10-08T18:41:57.336Z,12.02
2022-10-08T18:44:25.986Z,13.88
2022-10-08T18:46:53.974Z,16.58
2022-10-08T18:49:29.105Z,23.40
2022-10-08T18:51:57.655Z,31.73
2022-10-08T18:54:25.851Z,25.98
2022-10-08T18:56:57.661Z,29.83
2022-10-08T18:59:26.093Z,28.90
2022-10-08T19:01:58.301Z,32.15
2022-10-08T19:04:27.525Z,29.85
2022-10-08T19:06:55.090Z,25.05
2022-10-08T19:09:22.646Z,23.15
2022-10-08T19:11:52.284Z,18.45
2022-10-08T19:14:22.403Z,23.48
2022-10-08T19:16:53.934Z,21.13
2022-10-08T19:19:25.411Z,21.65
2022-10-08T19:21:55.063Z,20.13
2022-10-08T19:24:24.948Z,24.77
2022-10-08T19:26:53.696Z,22.80
2022-10-08T19:29:29.305Z,27.45
2022-10-08T19:31:57.944Z,20.52
2022-10-08T19:34:27.705Z,20.25
2022-10-08T19:36:56.741Z,27.73
2022-10-08T19:39:27.246Z,20.40
2022-10-08T19:41:56.624Z,29.73
2022-10-08T19:44:28.504Z,18.27
2022-10-08T19:46:56.171Z,20.67
2022-10-08T19:49:24.109Z,18.92
2022-10-08T19:51:54.240Z,21.70
2022-10-08T19:54:21.943Z,21.83
2022-10-08T19:56:49.426Z,18.33
2022-10-08T19:59:18.404Z,18.65
2022-10-08T20:01:48.276Z,19.13
2022-10-08T20:04:17.740Z,19.92
2022-10-08T20:06:46.095Z,23.52
2022-10-08T20:09:14.873Z,22.05
2022-10-08T20:11:46.789Z,23.80
2022-10-08T20:14:15.200Z,20.60
2022-10-08T20:16:44.920Z,18.08
2022-10-08T20:19:21.005Z,16.02
2022-10-08T20:21:51.072Z,18.05
2022-10-08T20:24:19.432Z,14.65
2022-10-08T20:26:49.177Z,12.68
2022-10-08T20:29:19.986Z,14.77
2022-10-08T20:31:54.982Z,13.18
2022-10-08T20:34:32.723Z,14.13
2022-10-08T20:37:04.878Z,12.85
2022-10-08T20:39:33.484Z,13.10
2022-10-08T20:42:00.967Z,13.40
2022-10-08T20:44:28.504Z,14.57
2022-10-08T20:46:57.277Z,14.63
2022-10-08T20:49:24.918Z,14.57
2022-10-08T20:51:53.983Z,16.45
2022-10-08T20:54:21.849Z,16.90
2022-10-08T20:56:49.235Z,15.82
2022-10-08T20:59:18.742Z,15.95
2022-10-08T21:01:49.581Z,17.75
2022-10-08T21:04:19.599Z,18.73
2022-10-08T21:06:50.827Z,19.25
2022-10-08T21:09:22.380Z,19.25
2022-10-08T21:11:50.800Z,19.65
2022-10-08T21:14:21.475Z,20.20
2022-10-08T21:16:49.491Z,20.73
2022-10-08T21:19:23.678Z,21.95
2022-10-08T21:21:54.692Z,21.73
2022-10-08T21:24:22.235Z,25.42
2022-10-08T21:26:49.856Z,18.70
2022-10-08T21:29:18.398Z,19.08
2022-10-08T21:31:49.101Z,18.00
2022-10-08T21:34:17.609Z,19.88
2022-10-08T21:36:47.838Z,21.20
2022-10-08T21:39:17.125Z,21.63
2022-10-08T21:41:45.190Z,19.70
2022-10-08T21:44:15.701Z,21.27
2022-10-08T21:46:45.072Z,23.35
2022-10-08T21:49:24.198Z,22.45
2022-10-08T21:51:54.547Z,24.30
2022-10-08T21:54:23.346Z,22.63
2022-10-08T21:56:52.724Z,23.90
2022-10-08T21:59:20.627Z,23.30
2022-10-08T22:01:51.546Z,24.50
2022-10-08T22:04:25.454Z,23.67
2022-10-08T22:06:56.294Z,25.88
2022-10-08T22:09:31.087Z,25.75
2022-10-08T22:12:00.437Z,26.95
2022-10-08T22:14:28.066Z,25.65
2022-10-08T22:16:56.927Z,26.80
2022-10-08T22:19:25.410Z,31.70
2022-10-08T22:21:53.129Z,27.88
2022-10-08T22:24:21.985Z,27.25
2022-10-08T22:26:50.447Z,30.70
2022-10-08T22:29:19.609Z,28.63
2022-10-08T22:31:47.691Z,28.67
2022-10-08T22:34:15.736Z,30.45
2022-10-08T22:36:44.836Z,29.30
2022-10-08T22:39:12.469Z,28.90
2022-10-08T22:41:40.332Z,29.27
2022-10-08T22:44:07.738Z,29.13
2022-10-08T22:46:38.075Z,27.38
2022-10-08T22:49:12.434Z,28.05
2022-10-08T22:51:40.570Z,28.75
2022-10-08T22:54:10.224Z,27.52
2022-10-08T22:56:37.867Z,29.67
2022-10-08T22:59:06.384Z,28.67
2022-10-08T23:01:34.107Z,30.52
2022-10-08T23:04:02.196Z,29.25
2022-10-08T23:06:37.226Z,28.75
2022-10-08T23:09:12.400Z,30.85
2022-10-08T23:11:39.954Z,30.00
2022-10-08T23:14:07.525Z,28.75
2022-10-08T23:16:35.210Z,29.23
2022-10-08T23:19:07.781Z,29.40
2022-10-08T23:21:36.226Z,30.23
2022-10-08T23:24:04.472Z,31.83
2022-10-08T23:26:31.933Z,30.20
2022-10-08T23:29:01.213Z,31.60
2022-10-08T23:31:36.469Z,30.85
2022-10-08T23:34:07.143Z,30.65
2022-10-08T23:36:42.679Z,32.58
2022-10-08T23:39:16.109Z,32.38
2022-10-08T23:41:45.476Z,31.37
2022-10-08T23:44:13.801Z,32.03
2022-10-08T23:46:41.471Z,31.60
2022-10-08T23:49:09.762Z,33.58
2022-10-08T23:51:37.543Z,33.22
2022-10-08T23:54:05.326Z,35.03
2022-10-08T23:56:33.891Z,36.35
2022-10-08T23:59:05.465Z,35.28
